»·PEaware :: ASA652 KGEG-KPDX

ASA652 :: KGEG-KPDX

FLIGHT INFORMATION

Flight Status: Arrived
Operator:
Alaska Airlines
More flights by this operator :: More flights under this callsign
Pilot: Luis M. (34457)
Aircraft: BOEING 737-800
(B738)
More flights by this aircraft type
Origin: KGEG Spokane Intl
United States
Destination: KPDX Portland Intl
United States
More flights between these airports :: More routes between these airports
Route: GEG7 YKM JORAD HHOOD4
File this flight plan on PilotEdge
Remarks:
Altitude:
(Current/Filed)
28,000ft
Speed:
(Current/Filed)
380kts
Departed: 11-Feb-24 10:10 PM
Arrived: 11-Feb-24 10:59 PM
Distance/Time
Traveled:
241nm/0:48
Distance/Time
To Go:
Arrived

Flight Plot

Page will automatically refresh every two minutes.

Flight plan parsing failed; only flown route is shown


Map Options




Map Legend


Flown Route
Filed Route
Departure Airport
Arrival Airport
Navaid (VOR, NDB)
Fix

Horizontal Profiles

Position Reports

Time Latitude Longitude Heading Altitude Ground
Speed
11-Feb-24 21:35 47.624212 -117.536670 82 2365ft 0kts
11-Feb-24 21:36 47.624212 -117.536670 82 2365ft 0kts
11-Feb-24 21:37 47.624212 -117.536670 82 2365ft 0kts
11-Feb-24 21:38 47.624212 -117.536670 82 2365ft 0kts
11-Feb-24 21:39 47.624212 -117.536670 82 2365ft 0kts
11-Feb-24 21:40 47.624212 -117.536670 82 2365ft 0kts
11-Feb-24 21:41 47.624212 -117.536670 82 2365ft 0kts
11-Feb-24 21:42 47.624212 -117.536670 82 2365ft 0kts
11-Feb-24 21:43 47.624212 -117.536670 82 2365ft 0kts
11-Feb-24 21:44 47.624212 -117.536670 82 2365ft 0kts
11-Feb-24 21:45 47.624212 -117.536670 82 2365ft 0kts
11-Feb-24 21:46 47.624212 -117.536670 82 2365ft 0kts
11-Feb-24 21:47 47.624212 -117.536670 82 2365ft 0kts
11-Feb-24 21:48 47.624212 -117.536670 82 2365ft 0kts
11-Feb-24 21:49 47.624212 -117.536670 82 2365ft 0kts
11-Feb-24 21:50 47.624212 -117.536670 82 2365ft 0kts
11-Feb-24 21:51 47.624212 -117.536670 82 2365ft 0kts
11-Feb-24 21:52 47.624212 -117.536670 82 2365ft 0kts
11-Feb-24 21:53 47.624212 -117.536670 82 2365ft 0kts
11-Feb-24 21:54 47.624212 -117.536670 82 2365ft 0kts
11-Feb-24 21:55 47.624212 -117.536670 82 2365ft 0kts
11-Feb-24 21:56 47.624197 -117.536772 60 2365ft 2kts
11-Feb-24 21:57 47.624028 -117.537575 107 2366ft 0kts
11-Feb-24 21:58 47.624074 -117.537662 137 2366ft 0kts
11-Feb-24 21:59 47.624074 -117.537662 137 2366ft 0kts
11-Feb-24 22:00 47.624074 -117.537662 137 2366ft 0kts
11-Feb-24 22:01 47.624073 -117.537660 137 2366ft 0kts
11-Feb-24 22:02 47.622956 -117.535011 98 2362ft 12kts
11-Feb-24 22:03 47.626323 -117.529626 47 2355ft 22kts
11-Feb-24 22:04 47.630309 -117.523648 46 2345ft 18kts
11-Feb-24 22:05 47.632321 -117.520379 85 2331ft 0kts
11-Feb-24 22:06 47.632321 -117.520379 85 2331ft 0kts
11-Feb-24 22:07 47.632130 -117.519829 134 2330ft 6kts
11-Feb-24 22:08 47.630752 -117.518970 225 2332ft 11kts
11-Feb-24 22:09 47.604162 -117.559125 222 3584ft 195kts
11-Feb-24 22:10 47.568188 -117.613618 229 7584ft 180kts
11-Feb-24 22:11 47.544504 -117.683625 246 10491ft 198kts
11-Feb-24 22:12 47.516168 -117.770810 244 11745ft 284kts
11-Feb-24 22:13 47.474460 -117.894575 244 12463ft 365kts
11-Feb-24 22:14 47.428456 -118.030407 244 15494ft 375kts
11-Feb-24 22:15 47.381299 -118.168962 245 18245ft 381kts
11-Feb-24 22:16 47.333056 -118.310355 245 20473ft 391kts
11-Feb-24 22:17 47.283240 -118.455045 245 22370ft 401kts
11-Feb-24 22:18 47.232007 -118.601862 245 24226ft 404kts
11-Feb-24 22:19 47.186363 -118.733970 245 25704ft 409kts
11-Feb-24 22:20 47.128574 -118.898519 246 27188ft 402kts
11-Feb-24 22:21 47.078967 -119.040323 245 27196ft 395kts
11-Feb-24 22:22 47.027325 -119.185426 246 27227ft 395kts
11-Feb-24 22:23 46.976958 -119.328425 246 27282ft 395kts
11-Feb-24 22:24 46.926263 -119.470854 245 27249ft 392kts
11-Feb-24 22:25 46.874757 -119.612704 246 27248ft 395kts
11-Feb-24 22:26 46.823402 -119.754952 245 27255ft 393kts
11-Feb-24 22:27 46.771694 -119.896462 245 27284ft 394kts
11-Feb-24 22:28 46.720545 -120.037497 245 27299ft 394kts
11-Feb-24 22:29 46.668879 -120.177757 245 27267ft 391kts
11-Feb-24 22:30 46.617250 -120.317178 244 27281ft 393kts
11-Feb-24 22:31 46.541464 -120.433625 220 27304ft 412kts
11-Feb-24 22:32 46.428242 -120.483448 201 27339ft 431kts
11-Feb-24 22:33 46.310713 -120.519888 200 27364ft 434kts
11-Feb-24 22:34 46.192731 -120.554466 200 27373ft 432kts
11-Feb-24 22:35 46.073677 -120.589028 200 27383ft 439kts
11-Feb-24 22:36 45.954815 -120.625626 206 27115ft 439kts
11-Feb-24 22:37 45.852059 -120.704772 224 24463ft 419kts
11-Feb-24 22:38 45.780960 -120.823429 242 23696ft 400kts
11-Feb-24 22:39 45.738375 -120.967927 250 23515ft 393kts
11-Feb-24 22:40 45.698312 -121.111884 251 21137ft 383kts
11-Feb-24 22:41 45.659112 -121.252261 250 18146ft 376kts
11-Feb-24 22:42 45.621225 -121.387950 250 15095ft 349kts
11-Feb-24 22:43 45.588155 -121.506034 250 12961ft 293kts
11-Feb-24 22:44 45.558137 -121.612434 250 12820ft 290kts
11-Feb-24 22:45 45.530545 -121.715138 261 12777ft 261kts
11-Feb-24 22:46 45.532960 -121.817916 271 12753ft 241kts
11-Feb-24 22:47 45.536567 -121.911551 270 10907ft 234kts
11-Feb-24 22:48 45.540932 -122.005417 272 8525ft 236kts
11-Feb-24 22:49 45.519128 -122.087318 237 6452ft 216kts
11-Feb-24 22:50 45.486667 -122.152874 235 5584ft 203kts
11-Feb-24 22:51 45.476717 -122.229609 272 4775ft 207kts
11-Feb-24 22:52 45.483159 -122.304242 273 3747ft 181kts
11-Feb-24 22:53 45.505491 -122.368293 296 3215ft 168kts
11-Feb-24 22:54 45.527676 -122.424619 296 2352ft 152kts
11-Feb-24 22:55 45.548428 -122.477431 296 1482ft 153kts
11-Feb-24 22:56 45.567312 -122.525595 296 734ft 150kts
11-Feb-24 22:57 45.587856 -122.577893 296 26ft 136kts
11-Feb-24 22:58 45.592110 -122.591277 270 26ft 1kts
11-Feb-24 22:59 45.592078 -122.593626 271 26ft 11kts
11-Feb-24 23:00 45.591896 -122.595866 239 26ft 2kts
11-Feb-24 23:01 45.591881 -122.595901 239 26ft 0kts
11-Feb-24 23:02 45.591881 -122.595901 239 26ft 0kts
11-Feb-24 23:03 45.591881 -122.595901 239 26ft 0kts

Navigation Log

Ident Type
Flight plan parsing failed, navigation log unavailable